M.o.m. — WDE6166 — position and weather

sailwx.info

Track history (hours):
 
Tides and Currents Weather Stations Pressure Air Temp Water Temp Dewpoint Dewpoint Depression Visibility Wind Speed Wind Dir Waves Ship Positions

M.o.m.

More information available from US FCC via Universal Licensing System and Coast Guard Vessel Documentation Center.

Last reported at 2014-Sep-14 23:19 UTC. Time now 2014-Sep-16 11:33 UTC.
Position N 48°48' W 123°06'.

Length 12 m.

Type: Sailing vessel. MMSI: 367376770.

Date/timePositionNaut miles runAvg speedWind from/ knotsBaromVisibWave heightAir tempDewpointWater temp
2014-Sep-14 23:19N 48°48' W 123°06'18 0.7
2014-Sep-13 20:25N 48°46' W 123°33'2 2.5
2014-Sep-13 19:27N 48°48' W 123°36'0 0.0
2014-Sep-11 23:07N 48°48' W 123°36'0 0.0
2014-Sep-11 21:25N 48°48' W 123°36'0 0.0
2014-Sep-11 20:13N 48°48' W 123°36'0 0.0
2014-Sep-11 19:25N 48°48' W 123°36'3 3.1
2014-Sep-11 18:29N 48°51' W 123°36'6 5.4
2014-Sep-11 17:21N 48°56' W 123°42'1 0.6
2014-Sep-11 16:10N 48°56' W 123°43'  
2014-Sep-07 20:24N 48°34' W 123°16'3 3.8
2014-Sep-07 19:33N 48°31' W 123°15'2 1.9
2014-Sep-07 18:27N 48°29' W 123°15'1 1.6
2014-Sep-07 17:33N 48°27' W 123°16'3 2.5
2014-Sep-07 16:33N 48°26' W 123°18'  
Track history (hours):
 
Tides and Currents Weather Stations Pressure Air Temp Water Temp Dewpoint Dewpoint Depression Visibility Wind Speed Wind Dir Waves Ship Positions

M.o.m.

More information available from US FCC via Universal Licensing System and Coast Guard Vessel Documentation Center.

Last reported at 2014-Sep-14 23:19 UTC. Time now 2014-Sep-16 11:33 UTC.
Position N 48°48' W 123°06'.

Length 12 m.

Type: Sailing vessel. MMSI: 367376770.

Date/timePositionNaut miles runAvg speedWind from/ knotsBaromVisibWave heightAir tempDewpointWater temp
2014-Sep-14 23:19N 48°48' W 123°06'18 0.7
2014-Sep-13 20:25N 48°46' W 123°33'2 2.5
2014-Sep-13 19:27N 48°48' W 123°36'0 0.0
2014-Sep-11 23:07N 48°48' W 123°36'0 0.0
2014-Sep-11 21:25N 48°48' W 123°36'0 0.0
2014-Sep-11 20:13N 48°48' W 123°36'0 0.0
2014-Sep-11 19:25N 48°48' W 123°36'3 3.1
2014-Sep-11 18:29N 48°51' W 123°36'6 5.4
2014-Sep-11 17:21N 48°56' W 123°42'1 0.6
2014-Sep-11 16:10N 48°56' W 123°43'  
2014-Sep-07 20:24N 48°34' W 123°16'3 3.8
2014-Sep-07 19:33N 48°31' W 123°15'2 1.9
2014-Sep-07 18:27N 48°29' W 123°15'1 1.6
2014-Sep-07 17:33N 48°27' W 123°16'3 2.5
2014-Sep-07 16:33N 48°26' W 123°18'  

Dump ship's entire track history